Time;durP1;ratioP1;P1;durP2;ratioP2;P2;SDS_P1;SDS_P2;PMS_P1;PMS_P2;Temp;Humidity;BMP_temperature;BMP_pressure;BME280_temperature;BME280_humidity;BME280_pressure;Samples;Min_cycle;Max_cycle;Signal;HPM_P1;HPM_P2
2022/01/16 00:00:08;;;;;;;10.82;7.40;;;;;;;2.81;87.51;100486.47;4841592;29;20065;-75
2022/01/16 00:05:17;;;;;;;10.88;7.57;;;;;;;2.69;87.52;100519.63;4842754;29;20072;-75
2022/01/16 00:07:43;;;;;;;11.77;8.15;;;;;;;2.73;87.33;100531.75;4824109;29;20743;-75
2022/01/16 00:10:09;;;;;;;9.02;7.10;;;;;;;2.69;87.06;100535.47;4841032;29;20062;-75
2022/01/16 00:12:35;;;;;;;11.13;8.07;;;;;;;2.70;87.22;100533.69;4856304;29;20042;-75
2022/01/16 00:15:01;;;;;;;10.60;7.63;;;;;;;2.68;86.99;100533.75;4854906;29;20033;-75
2022/01/16 00:17:28;;;;;;;11.05;8.45;;;;;;;2.68;86.43;100523.19;4824588;29;20037;-75
2022/01/16 00:19:54;;;;;;;10.68;8.20;;;;;;;2.73;86.30;100518.53;4841280;29;20081;-75
2022/01/16 00:22:24;;;;;;;11.13;8.38;;;;;;;2.79;86.88;100527.94;4840625;29;20108;-75
2022/01/16 00:24:49;;;;;;;13.15;8.80;;;;;;;2.85;86.76;100530.31;4849455;29;20066;-75
2022/01/16 00:27:14;;;;;;;11.77;8.68;;;;;;;2.89;86.73;100523.97;4855994;29;20041;-76
2022/01/16 00:29:40;;;;;;;12.57;9.05;;;;;;;2.93;86.65;100522.88;4840927;29;20026;-75
2022/01/16 00:32:06;;;;;;;12.43;9.27;;;;;;;2.99;87.05;100527.00;4840826;29;20094;-74
2022/01/16 00:34:31;;;;;;;15.18;9.07;;;;;;;2.99;87.30;100538.41;4839835;29;20085;-75
2022/01/16 00:36:56;;;;;;;12.18;8.88;;;;;;;3.06;87.57;100549.53;4826031;29;20041;-75
2022/01/16 00:39:22;;;;;;;13.63;9.48;;;;;;;3.09;86.90;100538.81;4854933;29;20037;-75
2022/01/16 00:41:47;;;;;;;14.18;10.05;;;;;;;3.17;87.50;100547.19;4854711;29;20046;-75
2022/01/16 00:44:12;;;;;;;11.95;9.05;;;;;;;3.17;87.25;100545.41;4855816;29;20018;-75
2022/01/16 00:46:38;;;;;;;13.18;9.32;;;;;;;3.24;87.23;100537.19;4857405;29;20054;-75
2022/01/16 00:49:04;;;;;;;13.25;9.82;;;;;;;3.14;86.69;100550.84;4839853;29;20037;-75
2022/01/16 00:51:30;;;;;;;12.32;9.00;;;;;;;3.17;86.86;100545.41;4841339;29;20042;-75
2022/01/16 00:53:55;;;;;;;14.60;10.10;;;;;;;3.21;87.02;100535.56;4841414;29;20738;-75
2022/01/16 00:56:21;;;;;;;13.48;9.95;;;;;;;3.23;86.77;100552.19;4826115;29;20057;-75
2022/01/16 00:58:47;;;;;;;14.65;10.50;;;;;;;3.24;87.23;100540.69;4825324;29;20030;-75
2022/01/16 01:01:12;;;;;;;14.63;10.82;;;;;;;3.26;86.72;100540.59;4855543;29;20120;-75
2022/01/16 01:03:38;;;;;;;16.80;10.02;;;;;;;3.23;86.41;100520.47;4824894;29;20029;-75
2022/01/16 01:06:03;;;;;;;16.13;11.27;;;;;;;3.25;86.93;100541.53;4856520;29;20723;-75
2022/01/16 01:08:30;;;;;;;17.35;11.40;;;;;;;3.25;86.52;100528.31;4838204;29;20077;-75
2022/01/16 01:10:56;;;;;;;15.20;10.90;;;;;;;3.28;86.69;100544.88;4841255;29;20132;-75
2022/01/16 01:13:24;;;;;;;14.70;10.38;;;;;;;3.28;86.57;100539.59;4838946;29;20033;-75
2022/01/16 01:15:57;;;;;;;15.35;10.90;;;;;;;3.26;86.52;100541.47;4838543;29;20037;-75
2022/01/16 01:18:23;;;;;;;14.65;10.55;;;;;;;3.27;86.72;100543.16;4854493;29;20101;-75
2022/01/16 01:20:50;;;;;;;15.88;10.30;;;;;;;3.29;86.55;100532.53;4853530;29;20052;-75
2022/01/16 01:23:16;;;;;;;17.55;11.57;;;;;;;3.30;86.17;100547.44;4837314;29;20044;-75
2022/01/16 01:25:42;;;;;;;17.08;11.63;;;;;;;3.32;86.20;100559.69;4838592;29;20030;-75
2022/01/16 01:28:08;;;;;;;17.63;11.45;;;;;;;3.34;86.65;100570.16;4831676;29;20061;-75
2022/01/16 01:30:34;;;;;;;18.35;12.18;;;;;;;3.36;86.15;100563.03;4822479;29;20165;-75
2022/01/16 01:33:00;;;;;;;18.10;12.45;;;;;;;3.35;86.52;100511.09;4838649;29;20041;-75
2022/01/16 01:35:26;;;;;;;18.38;12.55;;;;;;;3.32;86.47;100488.31;4838707;29;20041;-75
2022/01/16 01:37:52;;;;;;;19.58;12.60;;;;;;;3.32;86.34;100482.19;4839946;29;20046;-74
2022/01/16 01:40:24;;;;;;;19.42;12.38;;;;;;;3.26;86.00;100478.03;4822878;29;20037;-75
2022/01/16 01:43:05;;;;;;;22.45;14.10;;;;;;;3.28;86.60;100486.72;4839691;29;20045;-75
2022/01/16 01:51:19;;;;;;;21.30;13.35;;;;;;;3.26;86.86;100511.53;4856080;29;20049;-75
2022/01/16 01:53:46;;;;;;;23.48;14.48;;;;;;;3.27;86.71;100540.53;4841816;29;20030;-75
2022/01/16 01:56:13;;;;;;;24.42;14.70;;;;;;;3.28;86.47;100542.22;4839065;29;20050;-75
2022/01/16 01:58:39;;;;;;;27.25;16.02;;;;;;;3.28;86.58;100533.44;4839614;29;20041;-75
2022/01/16 02:01:10;;;;;;;24.08;14.85;;;;;;;3.31;86.81;100543.88;4838318;29;20083;-75
2022/01/16 02:06:04;;;;;;;22.70;14.60;;;;;;;3.23;86.65;100552.19;4840782;29;20053;-75
2022/01/16 02:08:29;;;;;;;27.05;15.85;;;;;;;3.24;87.12;100523.97;4823659;29;20283;-75
2022/01/16 02:10:56;;;;;;;28.33;15.77;;;;;;;3.23;87.10;100538.97;4840026;29;20065;-75
2022/01/16 02:13:27;;;;;;;28.33;17.17;;;;;;;3.25;87.05;100545.03;4823525;29;20021;-75
2022/01/16 02:32:29;;;;;;;27.75;17.55;;;;;;;3.32;87.68;100529.75;4853795;29;20058;-75
2022/01/16 02:34:48;;;;;;;27.80;17.13;;;;;;;3.34;87.68;100544.59;4843278;29;20161;-75
2022/01/16 02:37:15;;;;;;;30.15;18.27;;;;;;;3.35;87.75;100542.81;4838251;29;20069;-75
2022/01/16 02:39:45;;;;;;;29.33;17.50;;;;;;;3.32;88.06;100550.91;4854743;29;20053;-75
2022/01/16 02:42:12;;;;;;;28.98;17.60;;;;;;;3.36;88.10;100549.81;4855070;29;20038;-75
2022/01/16 02:44:47;;;;;;;30.30;18.40;;;;;;;3.35;87.81;100519.88;4855361;29;20356;-75
2022/01/16 02:47:18;;;;;;;29.70;18.30;;;;;;;3.35;87.76;100524.31;4848644;29;20484;-75
2022/01/16 02:49:47;;;;;;;34.03;19.27;;;;;;;3.30;88.03;100524.50;4839890;29;20025;-75
2022/01/16 02:52:15;;;;;;;31.40;19.38;;;;;;;3.34;87.97;100512.88;4855216;29;20030;-75
2022/01/16 02:54:42;;;;;;;31.88;19.75;;;;;;;3.38;88.23;100527.66;4831642;29;20033;-75
2022/01/16 02:57:12;;;;;;;33.72;19.75;;;;;;;3.41;88.12;100524.00;4838999;29;20034;-75
2022/01/16 02:59:39;;;;;;;34.75;19.92;;;;;;;3.38;88.12;100508.28;4837008;29;20060;-75
2022/01/16 03:02:05;;;;;;;30.20;18.38;;;;;;;3.39;87.64;100502.06;4838002;29;20045;-75
2022/01/16 03:04:31;;;;;;;31.50;18.70;;;;;;;3.41;88.03;100490.47;4838028;29;20046;-75
2022/01/16 03:06:59;;;;;;;33.17;19.63;;;;;;;3.39;87.51;100489.72;4854983;29;20038;-75
2022/01/16 03:09:25;;;;;;;35.10;20.65;;;;;;;3.37;87.70;100486.28;4852128;29;20089;-75
2022/01/16 03:11:50;;;;;;;31.42;19.10;;;;;;;3.36;88.39;100474.00;4840335;29;20048;-75
2022/01/16 03:14:19;;;;;;;35.30;20.42;;;;;;;3.36;88.43;100474.00;4853153;29;20037;-75
2022/01/16 03:16:49;;;;;;;36.05;21.08;;;;;;;3.40;87.82;100467.63;4831918;29;20044;-75
2022/01/16 03:22:03;;;;;;;31.38;17.90;;;;;;;3.42;87.69;100468.41;4841353;29;20048;-75
2022/01/16 03:24:41;;;;;;;32.45;18.48;;;;;;;3.38;87.75;100471.28;4825406;29;20066;-76
2022/01/16 03:27:10;;;;;;;31.42;19.35;;;;;;;3.35;88.01;100477.59;4836748;29;20046;-75
2022/01/16 03:29:36;;;;;;;32.35;19.65;;;;;;;3.35;87.64;100485.50;4823905;29;20053;-75
2022/01/16 03:32:04;;;;;;;30.52;18.27;;;;;;;3.36;88.04;100489.88;4837354;29;20499;-75
2022/01/16 03:34:33;;;;;;;32.67;20.63;;;;;;;3.33;88.06;100489.16;4837049;29;20042;-75
2022/01/16 03:36:58;;;;;;;38.75;20.92;;;;;;;3.32;88.22;100485.69;4853013;29;20046;-75
2022/01/16 03:39:23;;;;;;;34.55;19.88;;;;;;;3.35;88.41;100476.72;4837569;29;20080;-76
2022/01/16 03:41:49;;;;;;;37.38;20.73;;;;;;;3.37;88.19;100472.22;4837028;29;20034;-75
2022/01/16 03:44:15;;;;;;;34.45;19.00;;;;;;;3.37;87.76;100472.22;4839415;29;20057;-75
2022/01/16 03:46:42;;;;;;;34.25;20.17;;;;;;;3.40;87.94;100475.56;4853521;29;20041;-75
2022/01/16 03:49:16;;;;;;;36.22;21.08;;;;;;;3.36;87.55;100470.50;4822974;29;20046;-75
2022/01/16 03:51:43;;;;;;;36.92;20.65;;;;;;;3.39;88.00;100475.63;4855312;29;20026;-75
2022/01/16 03:54:11;;;;;;;37.65;21.33;;;;;;;3.38;88.24;100477.44;4856340;29;20030;-75
2022/01/16 03:56:37;;;;;;;35.72;20.60;;;;;;;3.36;87.77;100481.94;4840660;29;20065;-75
2022/01/16 03:59:03;;;;;;;36.92;21.05;;;;;;;3.39;87.83;100489.72;4857498;29;20033;-75
2022/01/16 04:01:29;;;;;;;34.58;19.48;;;;;;;3.43;88.00;100493.03;4857968;29;20130;-75
2022/01/16 04:03:55;;;;;;;34.30;19.60;;;;;;;3.45;87.97;100491.19;4841696;29;20660;-75
2022/01/16 04:06:21;;;;;;;35.67;20.65;;;;;;;3.44;87.87;100486.81;4841805;29;20043;-75
2022/01/16 04:08:47;;;;;;;36.45;20.80;;;;;;;3.36;87.79;100478.44;4834011;29;20041;-75
2022/01/16 04:11:13;;;;;;;34.83;20.35;;;;;;;3.39;88.13;100491.50;4835706;29;20138;-75
2022/01/16 04:13:47;;;;;;;34.38;19.67;;;;;;;3.45;88.56;100485.88;4841650;29;20184;-75
2022/01/16 04:16:12;;;;;;;35.45;20.75;;;;;;;3.40;87.85;100486.13;4855118;29;20037;-75
2022/01/16 04:18:38;;;;;;;35.28;21.27;;;;;;;3.37;88.30;100478.38;4840130;29;20048;-75
2022/01/16 04:21:04;;;;;;;35.88;21.40;;;;;;;3.41;88.40;100484.34;4841456;29;20045;-75
2022/01/16 04:23:30;;;;;;;34.08;19.63;;;;;;;3.38;88.23;100488.00;4826324;29;20049;-75
2022/01/16 04:25:55;;;;;;;36.75;20.80;;;;;;;3.43;88.62;100501.84;4838176;29;20046;-75
2022/01/16 04:28:24;;;;;;;37.05;21.23;;;;;;;3.41;88.22;100497.56;4856611;29;20038;-76
2022/01/16 04:30:50;;;;;;;32.47;20.15;;;;;;;3.40;88.22;100502.00;4839541;29;20050;-75
2022/01/16 04:33:15;;;;;;;34.45;20.38;;;;;;;3.38;88.30;100501.22;4847365;29;20048;-75
2022/01/16 04:35:41;;;;;;;37.05;21.83;;;;;;;3.38;88.50;100505.66;4826682;29;20042;-75
2022/01/16 04:38:06;;;;;;;39.00;21.20;;;;;;;3.39;88.68;100495.00;4840995;29;20048;-75
2022/01/16 04:40:41;;;;;;;32.88;20.00;;;;;;;3.39;88.97;100496.78;4857348;29;20045;-75
2022/01/16 04:45:50;;;;;;;37.28;21.50;;;;;;;3.40;88.60;100504.63;4842324;29;20052;-75
2022/01/16 04:48:15;;;;;;;33.65;20.20;;;;;;;3.41;88.80;100505.50;4839513;29;20045;-75
2022/01/16 04:50:41;;;;;;;33.45;20.27;;;;;;;3.41;89.04;100505.50;4825367;29;20045;-75
2022/01/16 04:53:06;;;;;;;35.33;20.05;;;;;;;3.41;88.66;100508.97;4838247;29;20041;-75
2022/01/16 04:55:31;;;;;;;34.53;20.23;;;;;;;3.43;88.70;100504.47;4856407;29;20046;-75
2022/01/16 04:57:57;;;;;;;32.50;19.60;;;;;;;3.45;88.57;100507.88;4837071;29;20037;-75
2022/01/16 05:00:22;;;;;;;32.55;19.85;;;;;;;3.42;88.31;100513.34;4839371;29;20073;-75
2022/01/16 05:02:48;;;;;;;35.17;19.77;;;;;;;3.44;88.76;100507.97;4853733;29;20046;-75
2022/01/16 05:05:13;;;;;;;34.58;20.50;;;;;;;3.42;88.77;100507.19;4838874;29;20076;-75
2022/01/16 05:07:39;;;;;;;35.40;20.42;;;;;;;3.38;88.49;100495.94;4840145;29;20037;-75
2022/01/16 05:10:06;;;;;;;39.20;21.38;;;;;;;3.42;88.40;100501.91;4839469;29;20041;-75
2022/01/16 05:12:37;;;;;;;31.67;19.73;;;;;;;3.42;88.40;100499.25;4837558;29;20034;-75
2022/01/16 05:17:47;;;;;;;34.35;21.25;;;;;;;3.47;88.64;100499.88;4856724;29;20047;-75
2022/01/16 05:20:13;;;;;;;35.83;20.65;;;;;;;3.46;88.64;100508.75;4832877;29;20114;-75
2022/01/16 05:22:38;;;;;;;37.25;21.42;;;;;;;3.51;89.05;100505.88;4838415;29;20052;-75
2022/01/16 05:25:06;;;;;;;36.00;22.45;;;;;;;3.51;88.47;100504.06;4840378;29;20041;-75
2022/01/16 05:27:32;;;;;;;37.15;21.20;;;;;;;3.51;89.06;100501.44;4851701;29;20077;-75
2022/01/16 05:29:57;;;;;;;35.13;21.05;;;;;;;3.49;88.70;100508.59;4855595;29;20058;-75
2022/01/16 05:32:22;;;;;;;37.88;22.45;;;;;;;3.51;88.74;100513.78;4853016;29;20038;-75
2022/01/16 05:34:48;;;;;;;35.75;20.85;;;;;;;3.47;88.63;100503.38;4848695;29;20052;-75
2022/01/16 05:37:13;;;;;;;32.95;20.98;;;;;;;3.46;88.75;100506.09;4841913;29;20041;-75
2022/01/16 05:39:40;;;;;;;36.47;21.70;;;;;;;3.41;88.59;100508.97;4854070;29;20101;-75
2022/01/16 05:42:07;;;;;;;35.97;21.55;;;;;;;3.36;88.65;100507.50;4839441;29;20073;-75
2022/01/16 05:44:32;;;;;;;36.50;22.20;;;;;;;3.42;89.09;100515.97;4838702;29;20037;-75
2022/01/16 05:47:02;;;;;;;34.40;20.35;;;;;;;3.43;88.87;100508.91;4838391;29;20045;-75
2022/01/16 05:49:27;;;;;;;33.63;20.38;;;;;;;3.43;88.71;100507.13;4852944;29;20046;-75
2022/01/16 05:51:53;;;;;;;35.03;21.05;;;;;;;3.39;89.04;100513.50;4839118;29;20701;-75
2022/01/16 05:54:18;;;;;;;37.72;22.20;;;;;;;3.38;88.78;100513.56;4838175;29;20533;-75
2022/01/16 05:56:43;;;;;;;35.00;21.83;;;;;;;3.45;88.66;100501.75;4851527;29;20054;-75
2022/01/16 05:59:09;;;;;;;33.67;20.67;;;;;;;3.46;88.90;100506.97;4840574;29;20033;-75
2022/01/16 06:01:36;;;;;;;32.47;20.13;;;;;;;3.49;88.72;100516.50;4839595;29;20034;-75
2022/01/16 06:04:02;;;;;;;33.88;21.05;;;;;;;3.47;88.33;100516.59;4856969;29;20056;-75
2022/01/16 06:06:27;;;;;;;32.47;19.80;;;;;;;3.50;88.72;100512.94;4855000;29;20038;-75
2022/01/16 06:08:52;;;;;;;35.67;20.98;;;;;;;3.50;88.68;100517.38;4838048;29;20096;-75
2022/01/16 06:11:18;;;;;;;36.25;21.17;;;;;;;3.51;88.20;100514.66;4838078;29;20045;-75
2022/01/16 06:13:43;;;;;;;34.85;20.50;;;;;;;3.51;88.45;100513.78;4853182;29;20045;-75
2022/01/16 06:16:09;;;;;;;36.92;20.67;;;;;;;3.52;88.47;100519.00;4836847;29;20030;-75
2022/01/16 06:18:34;;;;;;;35.28;21.05;;;;;;;3.55;88.59;100515.34;4837566;29;20098;-75
2022/01/16 06:21:00;;;;;;;33.53;20.20;;;;;;;3.57;88.47;100527.53;4837625;29;20034;-75
2022/01/16 06:23:25;;;;;;;38.35;21.92;;;;;;;3.55;88.56;100524.13;4838060;29;20037;-75
2022/01/16 06:25:54;;;;;;;36.95;21.83;;;;;;;3.58;88.70;100531.03;4838315;29;20029;-76
2022/01/16 06:28:20;;;;;;;;;;;;;;;3.56;88.45;100525.84;4838754;29;20125;-74
2022/01/16 06:30:45;;;;;;;35.05;20.23;;;;;;;3.55;88.55;100512.69;4837721;29;19976;-75
2022/01/16 06:33:11;;;;;;;35.38;20.73;;;;;;;3.53;88.77;100526.00;4838974;29;20147;-75
2022/01/16 06:35:36;;;;;;;34.40;20.75;;;;;;;3.52;88.74;100526.94;4840957;29;20109;-75
2022/01/16 06:38:01;;;;;;;36.83;20.67;;;;;;;3.54;88.86;100529.50;4837173;29;20037;-75
2022/01/16 06:40:27;;;;;;;34.33;21.25;;;;;;;3.55;88.81;100539.13;4838194;29;20192;-75
2022/01/16 06:42:52;;;;;;;34.80;21.27;;;;;;;3.59;88.74;100551.25;4840346;29;20048;-76
2022/01/16 06:45:18;;;;;;;36.20;22.35;;;;;;;3.54;89.29;100548.00;4855025;29;20576;-75
2022/01/16 06:47:43;;;;;;;35.97;22.33;;;;;;;3.55;88.55;100552.34;4837367;29;20068;-75
2022/01/16 06:50:09;;;;;;;37.33;21.50;;;;;;;3.61;89.13;100557.31;4852342;29;20128;-75
2022/01/16 06:52:35;;;;;;;34.95;20.67;;;;;;;3.60;89.16;100561.75;4846933;29;20681;-75
2022/01/16 06:55:00;;;;;;;35.00;20.88;;;;;;;3.62;89.11;100572.25;4853262;29;20054;-75
2022/01/16 06:57:26;;;;;;;35.70;20.70;;;;;;;3.61;89.36;100573.19;4839488;29;20042;-75
2022/01/16 06:59:51;;;;;;;37.42;21.17;;;;;;;3.55;89.12;100561.13;4838733;29;20515;-75
2022/01/16 07:02:19;;;;;;;36.80;21.52;;;;;;;3.59;89.26;100569.78;4838196;29;20052;-75
2022/01/16 07:04:45;;;;;;;40.77;23.63;;;;;;;3.60;89.13;100568.84;4853746;29;20034;-75
2022/01/16 07:07:10;;;;;;;37.95;22.55;;;;;;;3.59;89.28;100575.91;4839994;29;20039;-75
2022/01/16 07:09:36;;;;;;;37.13;21.80;;;;;;;3.58;88.93;100574.19;4825282;29;20120;-75
2022/01/16 07:12:01;;;;;;;39.55;21.85;;;;;;;3.56;89.21;100570.78;4822243;29;20044;-75
2022/01/16 07:14:28;;;;;;;39.13;22.88;;;;;;;3.51;89.09;100579.88;4852904;29;20057;-75
2022/01/16 07:16:53;;;;;;;42.45;22.67;;;;;;;3.53;89.16;100584.16;4852208;29;20396;-75
2022/01/16 07:19:18;;;;;;;37.17;22.20;;;;;;;3.53;89.41;100580.66;4837482;29;20105;-75
2022/01/16 07:21:44;;;;;;;39.13;22.50;;;;;;;3.56;89.18;100584.00;4853496;29;20078;-75
2022/01/16 07:24:15;;;;;;;43.70;22.02;;;;;;;3.58;89.45;100600.66;4838237;29;20041;-75
2022/01/16 07:26:43;;;;;;;36.95;21.25;;;;;;;3.60;89.40;100595.28;4841925;29;20080;-75
2022/01/16 07:29:09;;;;;;;38.63;21.60;;;;;;;3.61;89.62;100613.72;4839452;29;20046;-75
2022/01/16 07:31:34;;;;;;;37.95;22.98;;;;;;;3.59;89.82;100606.78;4840571;29;20068;-75
2022/01/16 07:33:59;;;;;;;37.45;21.35;;;;;;;3.58;89.46;100613.88;4838843;29;20082;-75
2022/01/16 07:36:25;;;;;;;44.13;23.73;;;;;;;3.58;89.37;100619.16;4839718;29;20122;-75
2022/01/16 07:38:50;;;;;;;41.03;22.58;;;;;;;3.56;89.74;100620.16;4840993;29;20057;-75
2022/01/16 07:41:15;;;;;;;38.53;21.70;;;;;;;3.52;89.53;100602.75;4840924;29;20112;-75
2022/01/16 07:43:41;;;;;;;41.45;22.85;;;;;;;3.54;89.21;100611.47;4841722;29;20771;-75
2022/01/16 07:46:06;;;;;;;40.25;22.08;;;;;;;3.58;89.85;100624.44;4856784;29;20045;-75
2022/01/16 07:48:31;;;;;;;37.83;21.10;;;;;;;3.59;89.78;100634.09;4856831;29;20037;-75
2022/01/16 07:50:57;;;;;;;42.28;22.80;;;;;;;3.59;89.75;100634.09;4842141;29;20042;-75
2022/01/16 07:53:22;;;;;;;41.67;22.45;;;;;;;3.62;90.15;100635.72;4839785;29;20049;-75
2022/01/16 07:55:47;;;;;;;41.45;21.83;;;;;;;3.55;89.46;100631.66;4839220;29;20102;-75
2022/01/16 07:58:13;;;;;;;41.53;21.42;;;;;;;3.54;89.93;100637.91;4840299;29;20289;-75
2022/01/16 08:00:38;;;;;;;44.10;21.95;;;;;;;3.59;89.51;100639.38;4822025;29;20022;-75
2022/01/16 08:03:03;;;;;;;40.13;21.80;;;;;;;3.61;89.93;100632.22;4839091;29;20049;-75
2022/01/16 08:05:29;;;;;;;43.45;21.83;;;;;;;3.59;89.88;100639.38;4839985;29;20113;-75
2022/01/16 08:07:55;;;;;;;38.35;20.83;;;;;;;3.63;89.68;100627.72;4840328;29;20034;-75
2022/01/16 08:10:20;;;;;;;38.55;20.65;;;;;;;3.62;89.94;100627.78;4837338;29;20045;-75
2022/01/16 08:12:45;;;;;;;35.58;20.60;;;;;;;3.61;89.82;100628.72;4838602;29;20041;-75
2022/01/16 08:15:11;;;;;;;34.63;19.45;;;;;;;3.64;89.22;100637.34;4840710;29;20033;-75
2022/01/16 08:17:37;;;;;;;36.67;19.35;;;;;;;3.64;89.36;100633.84;4853042;29;20043;-75
2022/01/16 08:20:08;;;;;;;39.55;20.50;;;;;;;3.65;90.36;100639.06;4855458;29;20041;-74
2022/01/16 08:22:34;;;;;;;37.80;20.55;;;;;;;3.67;89.70;100637.19;4843193;29;20137;-75
2022/01/16 08:24:59;;;;;;;40.33;20.25;;;;;;;3.63;89.84;100643.56;4822592;29;20037;-75
2022/01/16 08:27:25;;;;;;;36.17;19.58;;;;;;;3.64;89.93;100640.00;4852254;29;20048;-75
2022/01/16 08:29:50;;;;;;;39.20;20.30;;;;;;;3.65;89.60;100639.06;4823294;29;20697;-74
2022/01/16 08:32:16;;;;;;;37.65;20.45;;;;;;;3.64;90.05;100637.34;4855238;29;20101;-75
2022/01/16 08:34:41;;;;;;;36.75;19.67;;;;;;;3.67;89.71;100639.84;4838379;29;20066;-75
2022/01/16 08:37:07;;;;;;;39.63;20.23;;;;;;;3.69;89.76;100642.41;4832794;29;20045;-75
2022/01/16 08:39:32;;;;;;;37.20;20.55;;;;;;;3.67;89.55;100639.84;4834553;29;20044;-75
2022/01/16 08:41:58;;;;;;;38.90;20.15;;;;;;;3.68;89.28;100646.84;4837894;29;20396;-75
2022/01/16 08:44:23;;;;;;;36.65;20.50;;;;;;;3.70;89.66;100652.06;4840226;29;20046;-75
2022/01/16 08:46:48;;;;;;;38.50;19.40;;;;;;;3.72;89.75;100656.34;4838705;29;20059;-75
2022/01/16 08:49:14;;;;;;;38.88;19.23;;;;;;;3.72;89.66;100664.25;4854270;29;20448;-75
2022/01/16 08:51:40;;;;;;;36.08;18.13;;;;;;;3.76;90.17;100671.09;4854293;29;20045;-75
2022/01/16 08:54:05;;;;;;;35.72;19.10;;;;;;;3.75;89.60;100673.84;4855639;29;20041;-74
2022/01/16 08:56:31;;;;;;;31.95;17.85;;;;;;;3.75;89.61;100679.13;4839770;29;20093;-75
2022/01/16 08:58:57;;;;;;;38.25;20.60;;;;;;;3.77;90.39;100678.13;4840749;29;20088;-75
2022/01/16 09:01:22;;;;;;;34.90;19.98;;;;;;;3.77;90.03;100670.19;4838942;29;20070;-75
2022/01/16 09:03:47;;;;;;;35.95;19.83;;;;;;;3.78;90.19;100673.69;4855368;29;20046;-74
2022/01/16 09:06:13;;;;;;;35.78;19.35;;;;;;;3.74;90.37;100674.75;4839250;29;20090;-75
2022/01/16 09:08:39;;;;;;;36.03;19.55;;;;;;;3.75;90.03;100671.19;4848926;29;20061;-74
2022/01/16 09:11:04;;;;;;;38.28;19.52;;;;;;;3.76;90.61;100671.09;4840975;29;20049;-75
2022/01/16 09:13:30;;;;;;;35.92;19.30;;;;;;;3.77;90.44;100670.19;4837975;29;20052;-75
2022/01/16 09:15:57;;;;;;;38.50;19.85;;;;;;;3.78;90.25;100671.03;4854044;29;20076;-74
2022/01/16 09:18:22;;;;;;;38.38;20.65;;;;;;;3.76;90.19;100686.13;4839981;29;20097;-75
2022/01/16 09:20:48;;;;;;;36.60;20.05;;;;;;;3.81;90.60;100693.84;4840547;29;20045;-75
2022/01/16 09:23:13;;;;;;;39.95;20.23;;;;;;;3.86;90.44;100686.53;4847471;29;20656;-75
2022/01/16 09:25:40;;;;;;;38.67;20.05;;;;;;;3.87;90.31;100690.91;4855814;29;20030;-75
2022/01/16 09:28:06;;;;;;;36.72;19.25;;;;;;;3.87;90.47;100693.56;4839306;29;20029;-75
2022/01/16 09:30:32;;;;;;;38.38;19.98;;;;;;;3.85;90.65;100701.56;4838006;29;20064;-76
2022/01/16 09:32:58;;;;;;;40.15;19.65;;;;;;;3.89;90.75;100702.25;4830815;29;20097;-74
2022/01/16 09:35:25;;;;;;;39.17;19.88;;;;;;;3.90;90.72;100702.19;4845166;29;20061;-75
2022/01/16 09:37:51;;;;;;;36.80;19.27;;;;;;;3.87;90.81;100706.78;4856268;29;20034;-75
2022/01/16 09:40:18;;;;;;;41.97;21.08;;;;;;;3.89;90.67;100710.19;4851981;29;20038;-75
2022/01/16 09:42:44;;;;;;;41.30;20.15;;;;;;;3.86;91.01;100705.91;4852210;29;20048;-75
2022/01/16 09:45:12;;;;;;;39.60;20.50;;;;;;;3.86;91.00;100707.72;4854286;29;20037;-75
2022/01/16 09:47:38;;;;;;;39.90;20.80;;;;;;;3.87;90.93;100712.91;4854093;29;20077;-75
2022/01/16 09:50:06;;;;;;;40.15;20.10;;;;;;;3.89;90.73;100726.06;4851939;29;20054;-75
2022/01/16 09:52:36;;;;;;;40.03;20.20;;;;;;;3.90;90.50;100726.00;4838450;29;20139;-75
2022/01/16 09:55:01;;;;;;;42.97;19.80;;;;;;;3.91;90.60;100730.34;4837910;29;20042;-75
2022/01/16 09:57:27;;;;;;;37.25;19.85;;;;;;;3.92;90.75;100732.06;4853483;29;20026;-75
2022/01/16 09:59:52;;;;;;;37.55;18.90;;;;;;;3.88;90.66;100729.66;4853369;29;20033;-75
2022/01/16 10:02:18;;;;;;;37.90;19.52;;;;;;;3.91;90.64;100737.44;4839716;29;20057;-75
2022/01/16 10:04:43;;;;;;;40.38;20.55;;;;;;;3.89;90.37;100734.88;4850040;29;20074;-75
2022/01/16 10:07:14;;;;;;;36.10;19.50;;;;;;;3.88;91.37;100737.59;4842852;29;20034;-75
2022/01/16 10:09:43;;;;;;;37.15;18.92;;;;;;;3.91;90.94;100732.16;4859249;29;20033;-75
2022/01/16 10:12:19;;;;;;;;;;;;;;;3.92;91.04;100736.50;4837748;29;20042;-74
2022/01/16 10:14:49;;;;;;;33.88;19.02;;;;;;;3.93;90.83;100741.72;4840921;29;19923;-75
2022/01/16 10:17:22;;;;;;;39.80;19.58;;;;;;;3.90;90.88;100741.00;4834070;29;20045;-74
2022/01/16 10:19:59;;;;;;;39.35;19.80;;;;;;;3.91;90.96;100737.44;4823251;29;20060;-75
2022/01/16 10:22:39;;;;;;;36.20;19.70;;;;;;;3.90;90.39;100746.31;4837618;29;20045;-75
2022/01/16 10:25:07;;;;;;;36.15;19.00;;;;;;;3.90;91.36;100748.94;4837920;29;20057;-75
2022/01/16 10:27:38;;;;;;;35.85;18.27;;;;;;;3.91;91.10;100748.88;4837289;29;20544;-75
2022/01/16 10:30:07;;;;;;;36.00;19.30;;;;;;;3.91;90.87;100748.88;4835309;29;20084;-75
2022/01/16 10:32:36;;;;;;;34.20;17.92;;;;;;;3.98;91.10;100752.06;4838963;29;20045;-75
2022/01/16 10:35:08;;;;;;;36.95;18.77;;;;;;;3.93;91.12;100746.16;4838728;29;20057;-75
2022/01/16 10:37:34;;;;;;;38.05;19.30;;;;;;;3.93;91.13;100744.34;4847948;29;20057;-74
2022/01/16 10:40:03;;;;;;;33.30;18.58;;;;;;;3.96;90.98;100749.50;4840062;29;20041;-75
2022/01/16 10:42:30;;;;;;;35.60;18.38;;;;;;;3.97;90.77;100753.00;4852455;29;20098;-75
2022/01/16 10:45:13;;;;;;;33.30;17.83;;;;;;;3.99;90.76;100754.63;4853369;29;20507;-75
2022/01/16 10:47:40;;;;;;;37.35;19.45;;;;;;;4.02;91.15;100757.13;4837993;29;20111;-74
2022/01/16 10:50:08;;;;;;;33.05;18.00;;;;;;;4.00;91.10;100753.69;4823869;29;20044;-74
2022/01/16 10:52:46;;;;;;;36.80;18.87;;;;;;;4.04;90.89;100746.47;4832578;29;20079;-75
2022/01/16 10:55:11;;;;;;;36.47;18.38;;;;;;;4.08;90.28;100756.81;4849633;29;20100;-74
2022/01/16 10:57:37;;;;;;;31.85;16.63;;;;;;;4.10;90.61;100747.00;4834712;29;20768;-74
2022/01/16 11:00:07;;;;;;;31.80;17.38;;;;;;;4.14;90.44;100757.44;4835105;29;20102;-75
2022/01/16 11:02:32;;;;;;;34.75;17.55;;;;;;;4.14;90.53;100749.50;4853564;29;20041;-75
2022/01/16 11:05:12;;;;;;;33.72;17.70;;;;;;;4.11;90.56;100743.44;4854799;29;20030;-75
2022/01/16 11:07:38;;;;;;;30.92;17.00;;;;;;;4.14;90.79;100744.22;4858246;29;20038;-75
2022/01/16 11:10:30;;;;;;;30.80;17.00;;;;;;;4.14;90.18;100747.72;4842008;29;20066;-75
2022/01/16 11:12:58;;;;;;;30.52;16.95;;;;;;;4.13;90.37;100755.72;4827381;29;20057;-74
2022/01/16 11:15:24;;;;;;;31.27;17.17;;;;;;;4.13;90.47;100753.06;4856841;29;20226;-75
2022/01/16 11:17:49;;;;;;;31.63;17.08;;;;;;;4.12;90.66;100757.53;4856751;29;20503;-75
2022/01/16 11:20:18;;;;;;;31.75;17.17;;;;;;;4.13;90.98;100758.38;4842022;29;20050;-75
2022/01/16 11:25:31;;;;;;;31.07;16.07;;;;;;;4.08;90.69;100748.88;4856467;29;20283;-75
2022/01/16 11:28:03;;;;;;;28.58;16.10;;;;;;;4.14;91.12;100757.44;4853951;29;20026;-75
2022/01/16 11:30:34;;;;;;;29.67;16.10;;;;;;;4.14;90.95;100760.94;4844458;29;20054;-75
2022/01/16 11:33:00;;;;;;;27.58;15.88;;;;;;;4.13;90.97;100763.66;4840236;29;20030;-75
2022/01/16 11:35:27;;;;;;;26.30;15.30;;;;;;;4.11;91.05;100767.25;4827057;29;20045;-74
2022/01/16 11:37:52;;;;;;;26.27;14.77;;;;;;;4.10;91.33;100770.81;4840233;29;20372;-74
2022/01/16 11:40:27;;;;;;;29.15;15.35;;;;;;;4.11;91.42;100758.44;4827989;29;20072;-74
2022/01/16 11:43:31;;;;;;;25.63;14.73;;;;;;;4.14;91.46;100762.72;4844538;29;20047;-75
2022/01/16 11:46:06;;;;;;;25.92;14.45;;;;;;;4.11;91.34;100764.59;4784930;30;20163;-74
2022/01/16 11:48:38;;;;;;;26.10;14.63;;;;;;;4.14;91.31;100760.09;4828651;29;20060;-75
2022/01/16 11:51:06;;;;;;;26.17;14.35;;;;;;;4.17;91.72;100760.78;4826136;29;20077;-74
2022/01/16 11:53:56;;;;;;;26.02;14.70;;;;;;;4.16;91.96;100766.16;4822179;29;20052;-74
2022/01/16 11:56:37;;;;;;;25.83;14.73;;;;;;;4.14;91.92;100766.22;4842229;29;20034;-75